sensor_id;sensor_type;location;lat;lon;timestamp;P1;durP1;ratioP1;P2;durP2;ratioP2
3085;SDS011;52812;48.960;9.108;2022-11-20T00:01:23;19.40;;;11.30;;
3085;SDS011;52812;48.960;9.108;2022-11-20T00:03:51;17.13;;;10.23;;
3085;SDS011;52812;48.960;9.108;2022-11-20T00:06:18;21.77;;;11.57;;
3085;SDS011;52812;48.960;9.108;2022-11-20T00:08:44;18.37;;;10.93;;
3085;SDS011;52812;48.960;9.108;2022-11-20T00:11:11;21.13;;;11.27;;
3085;SDS011;52812;48.960;9.108;2022-11-20T00:13:42;17.80;;;11.30;;
3085;SDS011;52812;48.960;9.108;2022-11-20T00:16:08;18.67;;;11.23;;
3085;SDS011;52812;48.960;9.108;2022-11-20T00:18:36;16.17;;;10.27;;
3085;SDS011;52812;48.960;9.108;2022-11-20T00:21:04;17.60;;;10.60;;
3085;SDS011;52812;48.960;9.108;2022-11-20T00:23:32;18.70;;;10.83;;
3085;SDS011;52812;48.960;9.108;2022-11-20T00:26:02;15.10;;;10.60;;
3085;SDS011;52812;48.960;9.108;2022-11-20T00:28:29;22.17;;;11.97;;
3085;SDS011;52812;48.960;9.108;2022-11-20T00:31:08;19.83;;;10.70;;
3085;SDS011;52812;48.960;9.108;2022-11-20T00:33:36;22.60;;;11.30;;
3085;SDS011;52812;48.960;9.108;2022-11-20T00:36:03;20.30;;;11.10;;
3085;SDS011;52812;48.960;9.108;2022-11-20T00:38:31;25.87;;;12.57;;
3085;SDS011;52812;48.960;9.108;2022-11-20T00:40:58;21.47;;;11.87;;
3085;SDS011;52812;48.960;9.108;2022-11-20T00:43:25;24.47;;;11.80;;
3085;SDS011;52812;48.960;9.108;2022-11-20T00:45:55;27.37;;;12.83;;
3085;SDS011;52812;48.960;9.108;2022-11-20T00:48:25;27.50;;;13.40;;
3085;SDS011;52812;48.960;9.108;2022-11-20T00:50:51;35.47;;;12.90;;
3085;SDS011;52812;48.960;9.108;2022-11-20T00:53:18;36.50;;;13.03;;
3085;SDS011;52812;48.960;9.108;2022-11-20T00:55:52;34.20;;;13.80;;
3085;SDS011;52812;48.960;9.108;2022-11-20T00:58:21;37.67;;;13.20;;
3085;SDS011;52812;48.960;9.108;2022-11-20T01:00:47;27.73;;;13.13;;
3085;SDS011;52812;48.960;9.108;2022-11-20T01:03:14;35.70;;;13.43;;
3085;SDS011;52812;48.960;9.108;2022-11-20T01:05:41;27.83;;;13.63;;
3085;SDS011;52812;48.960;9.108;2022-11-20T01:08:06;25.70;;;11.97;;
3085;SDS011;52812;48.960;9.108;2022-11-20T01:10:32;26.10;;;11.13;;
3085;SDS011;52812;48.960;9.108;2022-11-20T01:12:58;32.83;;;12.50;;
3085;SDS011;52812;48.960;9.108;2022-11-20T01:15:42;32.10;;;12.90;;
3085;SDS011;52812;48.960;9.108;2022-11-20T01:18:07;32.43;;;13.40;;
3085;SDS011;52812;48.960;9.108;2022-11-20T01:20:36;25.20;;;12.40;;
3085;SDS011;52812;48.960;9.108;2022-11-20T01:23:02;23.30;;;13.10;;
3085;SDS011;52812;48.960;9.108;2022-11-20T01:25:28;24.77;;;13.40;;
3085;SDS011;52812;48.960;9.108;2022-11-20T01:27:54;26.67;;;12.60;;
3085;SDS011;52812;48.960;9.108;2022-11-20T01:30:20;26.33;;;13.37;;
3085;SDS011;52812;48.960;9.108;2022-11-20T01:32:46;23.77;;;11.97;;
3085;SDS011;52812;48.960;9.108;2022-11-20T01:35:11;21.63;;;12.60;;
3085;SDS011;52812;48.960;9.108;2022-11-20T01:37:37;23.73;;;12.43;;
3085;SDS011;52812;48.960;9.108;2022-11-20T01:40:02;22.50;;;12.23;;
3085;SDS011;52812;48.960;9.108;2022-11-20T01:42:28;23.43;;;12.30;;
3085;SDS011;52812;48.960;9.108;2022-11-20T01:51:03;21.63;;;12.23;;
3085;SDS011;52812;48.960;9.108;2022-11-20T01:53:33;23.00;;;12.57;;
3085;SDS011;52812;48.960;9.108;2022-11-20T01:56:01;23.60;;;12.10;;
3085;SDS011;52812;48.960;9.108;2022-11-20T01:58:31;23.60;;;12.30;;
3085;SDS011;52812;48.960;9.108;2022-11-20T02:01:00;20.73;;;11.77;;
3085;SDS011;52812;48.960;9.108;2022-11-20T02:03:26;22.27;;;12.80;;
3085;SDS011;52812;48.960;9.108;2022-11-20T02:06:02;23.50;;;12.20;;
3085;SDS011;52812;48.960;9.108;2022-11-20T02:08:29;23.87;;;11.80;;
3085;SDS011;52812;48.960;9.108;2022-11-20T02:10:56;24.37;;;11.80;;
3085;SDS011;52812;48.960;9.108;2022-11-20T02:13:21;25.10;;;13.70;;
3085;SDS011;52812;48.960;9.108;2022-11-20T02:16:08;25.50;;;13.30;;
3085;SDS011;52812;48.960;9.108;2022-11-20T02:18:35;21.77;;;11.77;;
3085;SDS011;52812;48.960;9.108;2022-11-20T02:21:04;23.80;;;13.00;;
3085;SDS011;52812;48.960;9.108;2022-11-20T02:24:07;24.00;;;12.57;;
3085;SDS011;52812;48.960;9.108;2022-11-20T02:26:26;23.27;;;12.77;;
3085;SDS011;52812;48.960;9.108;2022-11-20T02:28:54;23.53;;;12.90;;
3085;SDS011;52812;48.960;9.108;2022-11-20T02:31:20;20.90;;;12.30;;
3085;SDS011;52812;48.960;9.108;2022-11-20T02:33:46;24.00;;;13.80;;
3085;SDS011;52812;48.960;9.108;2022-11-20T02:36:12;21.90;;;12.57;;
3085;SDS011;52812;48.960;9.108;2022-11-20T02:38:41;20.43;;;11.97;;
3085;SDS011;52812;48.960;9.108;2022-11-20T02:41:08;20.60;;;11.47;;
3085;SDS011;52812;48.960;9.108;2022-11-20T02:43:33;20.80;;;12.23;;
3085;SDS011;52812;48.960;9.108;2022-11-20T02:45:59;18.93;;;11.43;;
3085;SDS011;52812;48.960;9.108;2022-11-20T02:48:24;22.13;;;12.60;;
3085;SDS011;52812;48.960;9.108;2022-11-20T02:50:50;19.37;;;11.87;;
3085;SDS011;52812;48.960;9.108;2022-11-20T02:53:15;20.33;;;11.80;;
3085;SDS011;52812;48.960;9.108;2022-11-20T02:55:41;19.40;;;11.80;;
3085;SDS011;52812;48.960;9.108;2022-11-20T02:58:06;20.30;;;12.40;;
3085;SDS011;52812;48.960;9.108;2022-11-20T03:00:32;21.70;;;12.40;;
3085;SDS011;52812;48.960;9.108;2022-11-20T03:02:58;23.00;;;13.10;;
3085;SDS011;52812;48.960;9.108;2022-11-20T03:05:24;19.53;;;12.07;;
3085;SDS011;52812;48.960;9.108;2022-11-20T03:07:49;22.60;;;12.67;;
3085;SDS011;52812;48.960;9.108;2022-11-20T03:10:15;22.17;;;12.40;;
3085;SDS011;52812;48.960;9.108;2022-11-20T03:12:40;21.43;;;12.20;;
3085;SDS011;52812;48.960;9.108;2022-11-20T03:15:06;22.60;;;11.67;;
3085;SDS011;52812;48.960;9.108;2022-11-20T03:17:32;19.97;;;11.53;;
3085;SDS011;52812;48.960;9.108;2022-11-20T03:19:57;20.47;;;11.50;;
3085;SDS011;52812;48.960;9.108;2022-11-20T03:22:23;20.93;;;12.60;;
3085;SDS011;52812;48.960;9.108;2022-11-20T03:24:48;18.13;;;11.33;;
3085;SDS011;52812;48.960;9.108;2022-11-20T03:27:14;20.60;;;12.17;;
3085;SDS011;52812;48.960;9.108;2022-11-20T03:29:40;18.40;;;10.80;;
3085;SDS011;52812;48.960;9.108;2022-11-20T03:32:05;21.77;;;12.70;;
3085;SDS011;52812;48.960;9.108;2022-11-20T03:34:31;21.13;;;11.50;;
3085;SDS011;52812;48.960;9.108;2022-11-20T03:36:56;20.80;;;12.57;;
3085;SDS011;52812;48.960;9.108;2022-11-20T03:39:22;21.13;;;11.20;;
3085;SDS011;52812;48.960;9.108;2022-11-20T03:41:47;22.13;;;11.70;;
3085;SDS011;52812;48.960;9.108;2022-11-20T03:44:13;19.63;;;10.90;;
3085;SDS011;52812;48.960;9.108;2022-11-20T03:46:38;18.37;;;11.27;;
3085;SDS011;52812;48.960;9.108;2022-11-20T03:49:04;21.33;;;11.30;;
3085;SDS011;52812;48.960;9.108;2022-11-20T03:51:31;19.03;;;10.73;;
3085;SDS011;52812;48.960;9.108;2022-11-20T03:53:58;17.63;;;10.90;;
3085;SDS011;52812;48.960;9.108;2022-11-20T03:56:27;19.10;;;10.30;;
3085;SDS011;52812;48.960;9.108;2022-11-20T03:58:54;16.13;;;9.80;;
3085;SDS011;52812;48.960;9.108;2022-11-20T04:01:22;18.10;;;10.73;;
3085;SDS011;52812;48.960;9.108;2022-11-20T04:03:49;17.70;;;10.80;;
3085;SDS011;52812;48.960;9.108;2022-11-20T04:06:17;15.90;;;9.90;;
3085;SDS011;52812;48.960;9.108;2022-11-20T04:08:48;17.63;;;9.97;;
3085;SDS011;52812;48.960;9.108;2022-11-20T04:11:21;13.70;;;8.67;;
3085;SDS011;52812;48.960;9.108;2022-11-20T04:13:50;13.30;;;7.40;;
3085;SDS011;52812;48.960;9.108;2022-11-20T04:16:18;7.33;;;5.43;;
3085;SDS011;52812;48.960;9.108;2022-11-20T04:18:44;10.87;;;5.80;;
3085;SDS011;52812;48.960;9.108;2022-11-20T04:21:10;12.33;;;5.60;;
3085;SDS011;52812;48.960;9.108;2022-11-20T04:23:36;6.97;;;5.10;;
3085;SDS011;52812;48.960;9.108;2022-11-20T04:26:03;7.77;;;5.03;;
3085;SDS011;52812;48.960;9.108;2022-11-20T04:28:32;6.37;;;4.70;;
3085;SDS011;52812;48.960;9.108;2022-11-20T04:31:17;5.87;;;4.57;;
3085;SDS011;52812;48.960;9.108;2022-11-20T04:33:44;6.30;;;4.20;;
3085;SDS011;52812;48.960;9.108;2022-11-20T04:36:11;5.30;;;4.80;;
3085;SDS011;52812;48.960;9.108;2022-11-20T04:38:38;5.60;;;4.57;;
3085;SDS011;52812;48.960;9.108;2022-11-20T04:41:05;6.97;;;4.70;;
3085;SDS011;52812;48.960;9.108;2022-11-20T04:43:32;7.07;;;5.17;;
3085;SDS011;52812;48.960;9.108;2022-11-20T04:45:58;7.17;;;4.77;;
3085;SDS011;52812;48.960;9.108;2022-11-20T04:48:25;7.03;;;4.53;;
3085;SDS011;52812;48.960;9.108;2022-11-20T04:50:52;5.10;;;4.57;;
3085;SDS011;52812;48.960;9.108;2022-11-20T04:53:19;9.70;;;5.10;;
3085;SDS011;52812;48.960;9.108;2022-11-20T04:55:45;9.27;;;5.57;;
3085;SDS011;52812;48.960;9.108;2022-11-20T04:58:11;7.70;;;6.07;;
3085;SDS011;52812;48.960;9.108;2022-11-20T05:00:37;8.20;;;6.00;;
3085;SDS011;52812;48.960;9.108;2022-11-20T05:03:03;6.60;;;5.10;;
3085;SDS011;52812;48.960;9.108;2022-11-20T05:05:29;6.47;;;4.83;;
3085;SDS011;52812;48.960;9.108;2022-11-20T05:07:57;7.37;;;4.80;;
3085;SDS011;52812;48.960;9.108;2022-11-20T05:10:24;7.43;;;5.40;;
3085;SDS011;52812;48.960;9.108;2022-11-20T05:12:50;6.33;;;4.53;;
3085;SDS011;52812;48.960;9.108;2022-11-20T05:15:16;6.27;;;5.10;;
3085;SDS011;52812;48.960;9.108;2022-11-20T05:17:46;7.07;;;5.10;;
3085;SDS011;52812;48.960;9.108;2022-11-20T05:20:15;6.13;;;5.17;;
3085;SDS011;52812;48.960;9.108;2022-11-20T05:22:41;8.60;;;5.90;;
3085;SDS011;52812;48.960;9.108;2022-11-20T05:25:07;7.93;;;5.60;;
3085;SDS011;52812;48.960;9.108;2022-11-20T05:27:33;7.03;;;5.20;;
3085;SDS011;52812;48.960;9.108;2022-11-20T05:29:59;6.23;;;5.13;;
3085;SDS011;52812;48.960;9.108;2022-11-20T05:32:24;6.80;;;4.83;;
3085;SDS011;52812;48.960;9.108;2022-11-20T05:34:50;9.40;;;5.10;;
3085;SDS011;52812;48.960;9.108;2022-11-20T05:37:16;7.00;;;5.27;;
3085;SDS011;52812;48.960;9.108;2022-11-20T05:39:42;7.60;;;5.77;;
3085;SDS011;52812;48.960;9.108;2022-11-20T05:42:07;6.83;;;5.17;;
3085;SDS011;52812;48.960;9.108;2022-11-20T05:44:51;6.60;;;5.00;;
3085;SDS011;52812;48.960;9.108;2022-11-20T05:47:17;7.83;;;6.47;;
3085;SDS011;52812;48.960;9.108;2022-11-20T05:49:42;6.70;;;5.80;;
3085;SDS011;52812;48.960;9.108;2022-11-20T05:52:08;6.73;;;5.80;;
3085;SDS011;52812;48.960;9.108;2022-11-20T05:54:33;8.27;;;6.17;;
3085;SDS011;52812;48.960;9.108;2022-11-20T05:56:59;9.30;;;6.73;;
3085;SDS011;52812;48.960;9.108;2022-11-20T05:59:25;6.73;;;5.57;;
3085;SDS011;52812;48.960;9.108;2022-11-20T06:01:50;7.70;;;6.03;;
3085;SDS011;52812;48.960;9.108;2022-11-20T06:04:16;6.77;;;5.67;;
3085;SDS011;52812;48.960;9.108;2022-11-20T06:09:48;5.53;;;4.93;;
3085;SDS011;52812;48.960;9.108;2022-11-20T06:12:14;8.57;;;4.50;;
3085;SDS011;52812;48.960;9.108;2022-11-20T06:14:39;8.30;;;5.40;;
3085;SDS011;52812;48.960;9.108;2022-11-20T06:17:05;6.30;;;4.90;;
3085;SDS011;52812;48.960;9.108;2022-11-20T06:19:30;6.63;;;4.93;;
3085;SDS011;52812;48.960;9.108;2022-11-20T06:21:56;5.77;;;4.97;;
3085;SDS011;52812;48.960;9.108;2022-11-20T06:24:21;5.77;;;5.00;;
3085;SDS011;52812;48.960;9.108;2022-11-20T06:26:47;7.23;;;5.27;;
3085;SDS011;52812;48.960;9.108;2022-11-20T06:29:13;5.57;;;4.80;;
3085;SDS011;52812;48.960;9.108;2022-11-20T06:31:38;5.97;;;4.70;;
3085;SDS011;52812;48.960;9.108;2022-11-20T06:34:04;9.33;;;5.00;;
3085;SDS011;52812;48.960;9.108;2022-11-20T06:36:31;5.67;;;4.40;;
3085;SDS011;52812;48.960;9.108;2022-11-20T06:38:57;7.70;;;5.20;;
3085;SDS011;52812;48.960;9.108;2022-11-20T06:41:23;5.63;;;4.53;;
3085;SDS011;52812;48.960;9.108;2022-11-20T06:43:48;6.53;;;5.00;;
3085;SDS011;52812;48.960;9.108;2022-11-20T06:46:15;6.50;;;5.53;;
3085;SDS011;52812;48.960;9.108;2022-11-20T06:48:45;5.97;;;4.80;;
3085;SDS011;52812;48.960;9.108;2022-11-20T06:51:12;7.10;;;5.10;;
3085;SDS011;52812;48.960;9.108;2022-11-20T06:53:38;6.07;;;5.17;;
3085;SDS011;52812;48.960;9.108;2022-11-20T06:56:04;6.63;;;5.40;;
3085;SDS011;52812;48.960;9.108;2022-11-20T06:58:31;7.30;;;5.13;;
3085;SDS011;52812;48.960;9.108;2022-11-20T07:01:01;6.27;;;4.93;;
3085;SDS011;52812;48.960;9.108;2022-11-20T07:03:28;6.27;;;5.20;;
3085;SDS011;52812;48.960;9.108;2022-11-20T07:06:05;9.60;;;5.77;;
3085;SDS011;52812;48.960;9.108;2022-11-20T07:08:31;7.43;;;5.33;;
3085;SDS011;52812;48.960;9.108;2022-11-20T07:11:02;10.73;;;5.40;;
3085;SDS011;52812;48.960;9.108;2022-11-20T07:13:30;8.20;;;5.93;;
3085;SDS011;52812;48.960;9.108;2022-11-20T07:15:59;7.90;;;6.30;;
3085;SDS011;52812;48.960;9.108;2022-11-20T07:18:26;9.80;;;5.63;;
3085;SDS011;52812;48.960;9.108;2022-11-20T07:20:51;7.10;;;5.27;;
3085;SDS011;52812;48.960;9.108;2022-11-20T07:23:17;5.60;;;4.83;;
3085;SDS011;52812;48.960;9.108;2022-11-20T07:25:43;5.23;;;4.47;;
3085;SDS011;52812;48.960;9.108;2022-11-20T07:28:09;4.83;;;4.10;;
3085;SDS011;52812;48.960;9.108;2022-11-20T07:30:35;6.27;;;4.20;;
3085;SDS011;52812;48.960;9.108;2022-11-20T07:33:01;6.20;;;5.03;;
3085;SDS011;52812;48.960;9.108;2022-11-20T07:35:26;12.07;;;5.90;;
3085;SDS011;52812;48.960;9.108;2022-11-20T07:37:52;7.97;;;6.03;;
3085;SDS011;52812;48.960;9.108;2022-11-20T07:40:18;9.70;;;5.33;;
3085;SDS011;52812;48.960;9.108;2022-11-20T07:42:48;6.10;;;4.47;;
3085;SDS011;52812;48.960;9.108;2022-11-20T07:45:18;7.60;;;4.97;;
3085;SDS011;52812;48.960;9.108;2022-11-20T07:50:41;6.40;;;4.67;;
3085;SDS011;52812;48.960;9.108;2022-11-20T07:53:07;11.23;;;6.00;;
3085;SDS011;52812;48.960;9.108;2022-11-20T07:55:33;4.33;;;3.60;;
3085;SDS011;52812;48.960;9.108;2022-11-20T07:57:58;4.30;;;3.90;;
3085;SDS011;52812;48.960;9.108;2022-11-20T08:00:25;4.57;;;3.70;;
3085;SDS011;52812;48.960;9.108;2022-11-20T08:05:23;3.50;;;3.20;;
3085;SDS011;52812;48.960;9.108;2022-11-20T08:07:48;5.90;;;4.43;;
3085;SDS011;52812;48.960;9.108;2022-11-20T08:10:14;5.90;;;4.50;;
3085;SDS011;52812;48.960;9.108;2022-11-20T08:12:48;5.60;;;4.30;;
3085;SDS011;52812;48.960;9.108;2022-11-20T08:15:34;8.83;;;6.30;;
3085;SDS011;52812;48.960;9.108;2022-11-20T08:18:11;11.10;;;8.00;;
3085;SDS011;52812;48.960;9.108;2022-11-20T08:20:37;9.73;;;7.93;;
3085;SDS011;52812;48.960;9.108;2022-11-20T08:23:04;9.30;;;7.17;;
3085;SDS011;52812;48.960;9.108;2022-11-20T08:25:31;8.20;;;7.20;;
3085;SDS011;52812;48.960;9.108;2022-11-20T08:27:58;9.20;;;5.87;;
3085;SDS011;52812;48.960;9.108;2022-11-20T08:32:59;3.43;;;2.73;;
3085;SDS011;52812;48.960;9.108;2022-11-20T08:35:26;3.30;;;2.40;;
3085;SDS011;52812;48.960;9.108;2022-11-20T08:37:52;6.77;;;2.60;;
3085;SDS011;52812;48.960;9.108;2022-11-20T08:40:18;3.23;;;2.83;;
3085;SDS011;52812;48.960;9.108;2022-11-20T08:42:49;4.43;;;2.90;;
3085;SDS011;52812;48.960;9.108;2022-11-20T08:45:16;4.77;;;3.80;;
3085;SDS011;52812;48.960;9.108;2022-11-20T08:47:42;4.30;;;3.50;;
3085;SDS011;52812;48.960;9.108;2022-11-20T08:50:09;4.67;;;4.23;;
3085;SDS011;52812;48.960;9.108;2022-11-20T08:52:36;4.90;;;4.00;;
3085;SDS011;52812;48.960;9.108;2022-11-20T08:55:02;6.13;;;4.80;;
3085;SDS011;52812;48.960;9.108;2022-11-20T08:57:31;7.50;;;6.00;;
3085;SDS011;52812;48.960;9.108;2022-11-20T08:59:57;7.70;;;5.20;;
3085;SDS011;52812;48.960;9.108;2022-11-20T09:02:22;7.00;;;5.43;;
3085;SDS011;52812;48.960;9.108;2022-11-20T09:04:48;7.80;;;5.93;;
3085;SDS011;52812;48.960;9.108;2022-11-20T09:07:13;10.93;;;7.80;;
3085;SDS011;52812;48.960;9.108;2022-11-20T09:09:39;10.90;;;7.43;;
3085;SDS011;52812;48.960;9.108;2022-11-20T09:12:04;5.77;;;4.60;;
3085;SDS011;52812;48.960;9.108;2022-11-20T09:14:30;6.73;;;3.80;;
3085;SDS011;52812;48.960;9.108;2022-11-20T09:16:55;6.43;;;5.17;;
3085;SDS011;52812;48.960;9.108;2022-11-20T09:19:21;4.40;;;4.00;;
3085;SDS011;52812;48.960;9.108;2022-11-20T09:21:48;3.50;;;3.20;;
3085;SDS011;52812;48.960;9.108;2022-11-20T09:24:13;3.43;;;3.13;;
3085;SDS011;52812;48.960;9.108;2022-11-20T09:26:39;3.23;;;2.80;;
3085;SDS011;52812;48.960;9.108;2022-11-20T09:29:05;4.70;;;3.50;;
3085;SDS011;52812;48.960;9.108;2022-11-20T09:31:30;4.63;;;3.47;;
3085;SDS011;52812;48.960;9.108;2022-11-20T09:33:56;3.87;;;3.50;;
3085;SDS011;52812;48.960;9.108;2022-11-20T09:36:22;5.40;;;4.23;;
3085;SDS011;52812;48.960;9.108;2022-11-20T09:38:48;3.80;;;3.40;;
3085;SDS011;52812;48.960;9.108;2022-11-20T09:47:03;4.57;;;3.60;;
3085;SDS011;52812;48.960;9.108;2022-11-20T09:50:00;4.37;;;3.97;;
3085;SDS011;52812;48.960;9.108;2022-11-20T09:52:55;7.57;;;4.07;;
3085;SDS011;52812;48.960;9.108;2022-11-20T09:55:24;5.50;;;4.47;;
3085;SDS011;52812;48.960;9.108;2022-11-20T09:57:51;6.23;;;4.57;;
3085;SDS011;52812;48.960;9.108;2022-11-20T10:00:17;7.30;;;4.87;;
3085;SDS011;52812;48.960;9.108;2022-11-20T10:02:59;6.20;;;4.57;;
3085;SDS011;52812;48.960;9.108;2022-11-20T10:05:35;5.60;;;4.70;;
3085;SDS011;52812;48.960;9.108;2022-11-20T10:08:22;4.63;;;4.20;;
3085;SDS011;52812;48.960;9.108;2022-11-20T10:11:00;7.27;;;5.10;;
3085;SDS011;52812;48.960;9.108;2022-11-20T10:13:39;7.63;;;4.73;;
3085;SDS011;52812;48.960;9.108;2022-11-20T10:16:18;6.47;;;4.90;;
3085;SDS011;52812;48.960;9.108;2022-11-20T10:18:57;8.03;;;4.70;;
3085;SDS011;52812;48.960;9.108;2022-11-20T10:21:34;5.40;;;4.33;;
3085;SDS011;52812;48.960;9.108;2022-11-20T10:29:33;4.43;;;3.20;;
3085;SDS011;52812;48.960;9.108;2022-11-20T10:32:07;3.30;;;3.00;;
3085;SDS011;52812;48.960;9.108;2022-11-20T10:37:25;3.53;;;3.23;;
3085;SDS011;52812;48.960;9.108;2022-11-20T10:42:51;3.70;;;3.30;;
3085;SDS011;52812;48.960;9.108;2022-11-20T10:47:50;4.83;;;3.40;;
3085;SDS011;52812;48.960;9.108;2022-11-20T10:50:19;3.20;;;2.90;;
3085;SDS011;52812;48.960;9.108;2022-11-20T10:53:00;4.17;;;3.77;;
3085;SDS011;52812;48.960;9.108;2022-11-20T10:55:40;4.03;;;3.40;;
3085;SDS011;52812;48.960;9.108;2022-11-20T10:58:37;4.47;;;3.83;;
3085;SDS011;52812;48.960;9.108;2022-11-20T11:01:19;6.80;;;3.60;;
3085;SDS011;52812;48.960;9.108;2022-11-20T11:03:50;4.53;;;3.40;;
3085;SDS011;52812;48.960;9.108;2022-11-20T11:09:02;5.97;;;4.90;;
3085;SDS011;52812;48.960;9.108;2022-11-20T11:11:37;5.60;;;4.07;;
3085;SDS011;52812;48.960;9.108;2022-11-20T11:14:04;7.50;;;5.03;;
3085;SDS011;52812;48.960;9.108;2022-11-20T11:16:48;6.70;;;5.07;;
3085;SDS011;52812;48.960;9.108;2022-11-20T11:19:21;5.57;;;4.70;;
3085;SDS011;52812;48.960;9.108;2022-11-20T11:21:48;5.97;;;4.30;;
3085;SDS011;52812;48.960;9.108;2022-11-20T11:24:21;6.73;;;5.00;;
3085;SDS011;52812;48.960;9.108;2022-11-20T11:26:52;7.03;;;4.90;;
3085;SDS011;52812;48.960;9.108;2022-11-20T11:29:25;8.73;;;5.30;;
3085;SDS011;52812;48.960;9.108;2022-11-20T11:32:06;5.87;;;4.83;;
3085;SDS011;52812;48.960;9.108;2022-11-20T11:34:38;7.17;;;5.43;;
3085;SDS011;52812;48.960;9.108;2022-11-20T11:37:04;7.27;;;4.67;;
3085;SDS011;52812;48.960;9.108;2022-11-20T11:39:40;5.70;;;4.37;;
3085;SDS011;52812;48.960;9.108;2022-11-20T11:42:07;7.07;;;4.90;;
3085;SDS011;52812;48.960;9.108;2022-11-20T11:44:38;7.07;;;3.70;;
3085;SDS011;52812;48.960;9.108;2022-11-20T11:52:45;5.20;;;3.60;;
3085;SDS011;52812;48.960;9.108;2022-11-20T11:55:15;3.97;;;3.60;;
3085;SDS011;52812;48.960;9.108;2022-11-20T11:58:11;5.50;;;2.97;;
3085;SDS011;52812;48.960;9.108;2022-11-20T12:00:39;3.83;;;2.83;;
3085;SDS011;52812;48.960;9.108;2022-11-20T12:03:15;4.97;;;2.93;;
3085;SDS011;52812;48.960;9.108;2022-11-20T12:05:54;3.80;;;3.00;;
3085;SDS011;52812;48.960;9.108;2022-11-20T12:08:32;7.53;;;3.00;;
3085;SDS011;52812;48.960;9.108;2022-11-20T12:11:11;5.33;;;2.90;;
3085;SDS011;52812;48.960;9.108;2022-11-20T12:13:57;5.13;;;3.10;;
3085;SDS011;52812;48.960;9.108;2022-11-20T12:16:26;4.20;;;3.23;;
3085;SDS011;52812;48.960;9.108;2022-11-20T12:18:53;3.50;;;3.10;;
3085;SDS011;52812;48.960;9.108;2022-11-20T12:23:59;5.73;;;3.17;;
3085;SDS011;52812;48.960;9.108;2022-11-20T12:26:49;3.10;;;2.80;;
3085;SDS011;52812;48.960;9.108;2022-11-20T12:29:30;5.63;;;3.23;;
3085;SDS011;52812;48.960;9.108;2022-11-20T12:32:47;6.20;;;2.80;;
3085;SDS011;52812;48.960;9.108;2022-11-20T12:38:11;3.50;;;2.90;;
3085;SDS011;52812;48.960;9.108;2022-11-20T12:40:52;4.20;;;3.23;;
3085;SDS011;52812;48.960;9.108;2022-11-20T12:43:53;3.50;;;3.20;;
3085;SDS011;52812;48.960;9.108;2022-11-20T12:50:02;4.67;;;3.13;;
3085;SDS011;52812;48.960;9.108;2022-11-20T12:52:58;3.47;;;2.33;;
3085;SDS011;52812;48.960;9.108;2022-11-20T12:56:01;3.30;;;2.40;;
3085;SDS011;52812;48.960;9.108;2022-11-20T12:58:42;6.53;;;2.60;;
3085;SDS011;52812;48.960;9.108;2022-11-20T13:04:24;3.13;;;2.47;;
3085;SDS011;52812;48.960;9.108;2022-11-20T13:07:02;5.33;;;2.70;;
3085;SDS011;52812;48.960;9.108;2022-11-20T13:09:31;5.37;;;2.73;;
3085;SDS011;52812;48.960;9.108;2022-11-20T13:14:45;3.80;;;2.20;;
3085;SDS011;52812;48.960;9.108;2022-11-20T13:20:02;4.23;;;2.73;;
3085;SDS011;52812;48.960;9.108;2022-11-20T13:22:42;3.03;;;2.60;;
3085;SDS011;52812;48.960;9.108;2022-11-20T13:25:09;4.23;;;2.53;;
3085;SDS011;52812;48.960;9.108;2022-11-20T13:27:35;4.47;;;2.50;;
3085;SDS011;52812;48.960;9.108;2022-11-20T13:30:13;5.00;;;2.50;;
3085;SDS011;52812;48.960;9.108;2022-11-20T13:32:53;3.40;;;2.30;;
3085;SDS011;52812;48.960;9.108;2022-11-20T13:35:30;3.70;;;2.63;;
3085;SDS011;52812;48.960;9.108;2022-11-20T13:38:13;9.10;;;6.17;;
3085;SDS011;52812;48.960;9.108;2022-11-20T13:40:58;4.23;;;3.20;;
3085;SDS011;52812;48.960;9.108;2022-11-20T13:43:48;2.93;;;2.50;;
3085;SDS011;52812;48.960;9.108;2022-11-20T13:46:13;3.20;;;2.70;;
3085;SDS011;52812;48.960;9.108;2022-11-20T13:48:43;6.63;;;2.73;;
3085;SDS011;52812;48.960;9.108;2022-11-20T13:51:32;2.57;;;2.30;;
3085;SDS011;52812;48.960;9.108;2022-11-20T14:02:36;4.57;;;2.93;;
3085;SDS011;52812;48.960;9.108;2022-11-20T14:05:02;4.00;;;2.67;;
3085;SDS011;52812;48.960;9.108;2022-11-20T14:07:35;7.27;;;3.00;;
3085;SDS011;52812;48.960;9.108;2022-11-20T14:10:04;4.97;;;2.80;;
3085;SDS011;52812;48.960;9.108;2022-11-20T14:12:32;3.87;;;2.60;;
3085;SDS011;52812;48.960;9.108;2022-11-20T14:14:59;4.63;;;2.63;;
3085;SDS011;52812;48.960;9.108;2022-11-20T14:19:53;3.00;;;2.00;;
3085;SDS011;52812;48.960;9.108;2022-11-20T14:22:23;2.03;;;1.90;;
3085;SDS011;52812;48.960;9.108;2022-11-20T14:27:28;2.73;;;1.87;;
3085;SDS011;52812;48.960;9.108;2022-11-20T14:29:54;3.57;;;2.13;;
3085;SDS011;52812;48.960;9.108;2022-11-20T14:32:21;2.50;;;1.77;;
3085;SDS011;52812;48.960;9.108;2022-11-20T14:34:51;2.80;;;1.80;;
3085;SDS011;52812;48.960;9.108;2022-11-20T14:37:18;2.90;;;1.83;;
3085;SDS011;52812;48.960;9.108;2022-11-20T14:39:53;2.30;;;2.10;;
3085;SDS011;52812;48.960;9.108;2022-11-20T14:42:24;2.83;;;1.90;;
3085;SDS011;52812;48.960;9.108;2022-11-20T14:44:52;3.73;;;1.90;;
3085;SDS011;52812;48.960;9.108;2022-11-20T14:47:22;3.97;;;2.23;;
3085;SDS011;52812;48.960;9.108;2022-11-20T14:49:54;5.13;;;2.30;;
3085;SDS011;52812;48.960;9.108;2022-11-20T14:52:21;5.67;;;2.07;;
3085;SDS011;52812;48.960;9.108;2022-11-20T14:57:21;4.60;;;2.57;;
3085;SDS011;52812;48.960;9.108;2022-11-20T15:00:05;5.03;;;2.07;;
3085;SDS011;52812;48.960;9.108;2022-11-20T15:02:41;3.70;;;2.27;;
3085;SDS011;52812;48.960;9.108;2022-11-20T15:05:07;4.47;;;2.20;;
3085;SDS011;52812;48.960;9.108;2022-11-20T15:07:35;5.47;;;2.50;;
3085;SDS011;52812;48.960;9.108;2022-11-20T15:10:06;2.53;;;2.20;;
3085;SDS011;52812;48.960;9.108;2022-11-20T15:12:35;2.40;;;2.20;;
3085;SDS011;52812;48.960;9.108;2022-11-20T15:15:04;3.67;;;2.40;;
3085;SDS011;52812;48.960;9.108;2022-11-20T15:17:30;4.30;;;2.33;;
3085;SDS011;52812;48.960;9.108;2022-11-20T15:19:57;3.27;;;2.40;;
3085;SDS011;52812;48.960;9.108;2022-11-20T15:22:24;3.50;;;2.60;;
3085;SDS011;52812;48.960;9.108;2022-11-20T15:24:50;3.80;;;3.13;;
3085;SDS011;52812;48.960;9.108;2022-11-20T15:27:15;5.47;;;3.57;;
3085;SDS011;52812;48.960;9.108;2022-11-20T15:29:41;6.23;;;3.40;;
3085;SDS011;52812;48.960;9.108;2022-11-20T15:32:07;8.67;;;3.00;;
3085;SDS011;52812;48.960;9.108;2022-11-20T15:34:34;4.10;;;3.17;;
3085;SDS011;52812;48.960;9.108;2022-11-20T15:36:59;3.90;;;2.87;;
3085;SDS011;52812;48.960;9.108;2022-11-20T15:39:25;4.57;;;3.50;;
3085;SDS011;52812;48.960;9.108;2022-11-20T15:41:50;4.70;;;3.63;;
3085;SDS011;52812;48.960;9.108;2022-11-20T15:44:16;7.03;;;5.10;;
3085;SDS011;52812;48.960;9.108;2022-11-20T15:46:42;6.63;;;5.63;;
3085;SDS011;52812;48.960;9.108;2022-11-20T15:49:13;12.90;;;9.00;;
3085;SDS011;52812;48.960;9.108;2022-11-20T15:51:41;11.97;;;8.80;;
3085;SDS011;52812;48.960;9.108;2022-11-20T15:54:09;10.73;;;7.77;;
3085;SDS011;52812;48.960;9.108;2022-11-20T15:56:37;11.37;;;8.13;;
3085;SDS011;52812;48.960;9.108;2022-11-20T15:59:02;19.77;;;12.47;;
3085;SDS011;52812;48.960;9.108;2022-11-20T16:01:28;14.67;;;11.30;;
3085;SDS011;52812;48.960;9.108;2022-11-20T16:03:53;20.13;;;12.47;;
3085;SDS011;52812;48.960;9.108;2022-11-20T16:06:19;16.97;;;10.93;;
3085;SDS011;52812;48.960;9.108;2022-11-20T16:08:45;16.90;;;11.30;;
3085;SDS011;52812;48.960;9.108;2022-11-20T16:11:14;13.93;;;10.20;;
3085;SDS011;52812;48.960;9.108;2022-11-20T16:13:41;13.30;;;9.50;;
3085;SDS011;52812;48.960;9.108;2022-11-20T16:16:28;12.63;;;11.33;;
3085;SDS011;52812;48.960;9.108;2022-11-20T16:18:56;11.33;;;9.33;;
3085;SDS011;52812;48.960;9.108;2022-11-20T16:21:22;10.43;;;7.50;;
3085;SDS011;52812;48.960;9.108;2022-11-20T16:23:56;8.40;;;5.97;;
3085;SDS011;52812;48.960;9.108;2022-11-20T16:26:26;5.40;;;4.90;;